Time;durP1;ratioP1;P1;durP2;ratioP2;P2;SDS_P1;SDS_P2;PMS_P1;PMS_P2;Temp;Humidity;BMP_temperature;BMP_pressure;BME280_temperature;BME280_humidity;BME280_pressure;Samples;Min_cycle;Max_cycle;Signal;HPM_P1;HPM_P2
2024/02/26 00:00:51;;;;;;;34.63;23.53;;;;;;;;;;5138074;27;318567;-81
2024/02/26 00:03:19;;;;;;;40.90;23.37;;;;;;;;;;5120700;27;319579;-80
2024/02/26 00:05:50;;;;;;;35.83;23.00;;;;;;;;;;5129401;27;318158;-80
2024/02/26 00:08:20;;;;;;;41.37;24.50;;;;;;;;;;5119783;27;319003;-80
2024/02/26 00:10:50;;;;;;;44.40;27.23;;;;;;;;;;5139156;27;335456;-80
2024/02/26 00:13:17;;;;;;;54.00;33.20;;;;;;;;;;5117744;27;359598;-81
2024/02/26 00:15:45;;;;;;;52.53;30.17;;;;;;;;;;5148931;27;319549;-81
2024/02/26 00:18:11;;;;;;;51.60;29.57;;;;;;;;;;5114405;27;331135;-80
2024/02/26 00:20:42;;;;;;;54.20;28.40;;;;;;;;;;5123419;27;317459;-80
2024/02/26 00:23:09;;;;;;;54.40;30.60;;;;;;;;;;5109091;27;319267;-80
2024/02/26 00:25:36;;;;;;;54.00;32.90;;;;;;;;;;5131501;27;318814;-80
2024/02/26 00:28:03;;;;;;;65.80;36.83;;;;;;;;;;5122854;27;319627;-81
2024/02/26 00:30:29;;;;;;;72.10;42.33;;;;;;;;;;5137657;27;337229;-80
2024/02/26 00:33:01;;;;;;;76.90;40.20;;;;;;;;;;5107138;27;319940;-80
2024/02/26 00:35:32;;;;;;;72.20;40.07;;;;;;;;;;5137670;27;319222;-80
2024/02/26 00:38:01;;;;;;;73.33;42.03;;;;;;;;;;5126644;27;318797;-80
2024/02/26 00:40:37;;;;;;;68.57;42.73;;;;;;;;;;5121981;27;319168;-80
2024/02/26 00:43:05;;;;;;;80.20;44.47;;;;;;;;;;5109294;27;319182;-80
2024/02/26 00:45:35;;;;;;;57.67;33.07;;;;;;;;;;5122122;27;317746;-80
2024/02/26 00:48:05;;;;;;;49.27;29.63;;;;;;;;;;5126102;27;320091;-80
2024/02/26 00:50:32;;;;;;;51.93;29.97;;;;;;;;;;5149596;27;319285;-80
2024/02/26 00:53:00;;;;;;;46.00;27.13;;;;;;;;;;5116836;27;318350;-82
2024/02/26 00:55:27;;;;;;;42.10;25.77;;;;;;;;;;5125154;27;335114;-79
2024/02/26 00:57:55;;;;;;;45.90;28.70;;;;;;;;;;5148000;27;347794;-80
2024/02/26 01:00:22;;;;;;;49.37;26.77;;;;;;;;;;5117121;27;420042;-79
2024/02/26 01:02:48;;;;;;;54.97;30.57;;;;;;;;;;5141979;27;317197;-79
2024/02/26 01:05:25;;;;;;;52.03;28.83;;;;;;;;;;5119204;27;316519;-79
2024/02/26 01:07:53;;;;;;;42.77;28.60;;;;;;;;;;5136713;27;317217;-79
2024/02/26 01:10:23;;;;;;;49.63;28.60;;;;;;;;;;5098082;27;417316;-79
2024/02/26 01:12:50;;;;;;;49.77;29.30;;;;;;;;;;5145490;27;316536;-79
2024/02/26 01:15:21;;;;;;;53.83;30.67;;;;;;;;;;5119727;27;317613;-80
2024/02/26 01:17:50;;;;;;;46.00;30.13;;;;;;;;;;5128495;27;317795;-80
2024/02/26 01:20:19;;;;;;;44.87;28.97;;;;;;;;;;5106827;27;319429;-80
2024/02/26 01:22:47;;;;;;;54.23;29.50;;;;;;;;;;5130717;27;319148;-79
2024/02/26 01:25:23;;;;;;;46.37;28.40;;;;;;;;;;5107776;27;337893;-79
2024/02/26 01:27:50;;;;;;;43.33;26.30;;;;;;;;;;5120305;27;317934;-80
2024/02/26 01:30:19;;;;;;;40.63;26.20;;;;;;;;;;5107481;27;318122;-81
2024/02/26 01:32:49;;;;;;;44.77;25.90;;;;;;;;;;5137845;27;319067;-80
2024/02/26 01:35:20;;;;;;;39.30;25.80;;;;;;;;;;5117913;27;318647;-81
2024/02/26 01:37:49;;;;;;;40.63;24.97;;;;;;;;;;5127758;27;317540;-79
2024/02/26 01:40:19;;;;;;;35.67;24.57;;;;;;;;;;5126636;27;318504;-81
2024/02/26 01:42:50;;;;;;;41.27;25.20;;;;;;;;;;5129044;27;317823;-80
2024/02/26 01:45:21;;;;;;;38.67;25.90;;;;;;;;;;5117665;27;345904;-79
2024/02/26 01:47:52;;;;;;;52.53;32.90;;;;;;;;;;5133607;27;319008;-79
2024/02/26 01:50:21;;;;;;;49.43;35.80;;;;;;;;;;5104995;27;418373;-79
2024/02/26 01:52:51;;;;;;;43.60;26.57;;;;;;;;;;5120406;27;317542;-80
2024/02/26 01:55:19;;;;;;;45.43;28.07;;;;;;;;;;5093268;27;420358;-82
2024/02/26 01:57:51;;;;;;;34.33;24.17;;;;;;;;;;5119795;27;317644;-79
2024/02/26 02:00:21;;;;;;;43.53;24.63;;;;;;;;;;5109800;27;419966;-81
2024/02/26 02:02:56;;;;;;;54.07;32.70;;;;;;;;;;5122580;27;317653;-81
2024/02/26 02:05:41;;;;;;;65.97;38.63;;;;;;;;;;5107435;27;418857;-80
2024/02/26 02:08:14;;;;;;;63.97;37.43;;;;;;;;;;5135545;27;319262;-80
2024/02/26 02:10:48;;;;;;;61.17;37.50;;;;;;;;;;5128296;27;317535;-80
2024/02/26 02:13:19;;;;;;;62.57;37.53;;;;;;;;;;5091055;27;317644;-81
2024/02/26 02:15:46;;;;;;;62.60;35.37;;;;;;;;;;5144996;27;323730;-81
2024/02/26 02:18:15;;;;;;;55.17;37.13;;;;;;;;;;5125318;27;319216;-80
2024/02/26 02:20:47;;;;;;;57.53;36.17;;;;;;;;;;5148356;27;317681;-80
2024/02/26 02:23:17;;;;;;;64.70;37.03;;;;;;;;;;5118937;27;318696;-79
2024/02/26 02:28:28;;;;;;;57.93;35.73;;;;;;;;;;5121509;27;390951;-80
2024/02/26 02:30:56;;;;;;;57.77;36.07;;;;;;;;;;5111795;27;317940;-80
2024/02/26 02:33:28;;;;;;;65.57;38.33;;;;;;;;;;5122912;27;317759;-80
2024/02/26 02:36:03;;;;;;;59.60;36.07;;;;;;;;;;5122575;27;319123;-82
2024/02/26 02:38:31;;;;;;;57.43;36.03;;;;;;;;;;5136621;27;318629;-81
2024/02/26 02:40:59;;;;;;;59.77;36.53;;;;;;;;;;5134441;27;318742;-81
2024/02/26 02:43:29;;;;;;;66.93;40.17;;;;;;;;;;5146925;27;319158;-81
2024/02/26 02:45:56;;;;;;;66.33;37.67;;;;;;;;;;5136404;27;318761;-80
2024/02/26 02:48:27;;;;;;;55.87;30.27;;;;;;;;;;5136638;27;317597;-80
2024/02/26 02:50:54;;;;;;;54.73;29.67;;;;;;;;;;5136726;27;318515;-80
2024/02/26 02:53:40;;;;;;;40.37;24.80;;;;;;;;;;5103234;27;418091;-80
2024/02/26 02:56:09;;;;;;;41.33;23.13;;;;;;;;;;5112786;27;318542;-82
2024/02/26 02:58:37;;;;;;;31.03;19.20;;;;;;;;;;5131013;27;317818;-80
2024/02/26 03:01:05;;;;;;;34.20;19.03;;;;;;;;;;5100574;27;318994;-80
2024/02/26 03:03:31;;;;;;;28.47;17.20;;;;;;;;;;5137125;27;318486;-79
2024/02/26 03:05:58;;;;;;;33.33;16.00;;;;;;;;;;5114623;27;318556;-80
2024/02/26 03:08:37;;;;;;;21.37;14.17;;;;;;;;;;5129671;27;319311;-80
2024/02/26 03:11:06;;;;;;;22.60;15.27;;;;;;;;;;5117263;27;318864;-80
2024/02/26 03:13:33;;;;;;;26.53;14.43;;;;;;;;;;5147923;27;318656;-80
2024/02/26 03:16:05;;;;;;;22.20;12.87;;;;;;;;;;5126109;27;319165;-82
2024/02/26 03:18:32;;;;;;;20.87;12.03;;;;;;;;;;5148391;27;318717;-81
2024/02/26 03:21:00;;;;;;;23.17;13.73;;;;;;;;;;5133808;27;318802;-82
2024/02/26 03:23:27;;;;;;;24.47;14.73;;;;;;;;;;5132152;27;317832;-79
2024/02/26 03:25:55;;;;;;;27.33;13.90;;;;;;;;;;5148345;27;319161;-80
2024/02/26 03:28:28;;;;;;;23.73;15.70;;;;;;;;;;5113237;27;418152;-80
2024/02/26 03:30:57;;;;;;;33.10;18.33;;;;;;;;;;5104658;27;318843;-80
2024/02/26 03:33:24;;;;;;;20.67;14.53;;;;;;;;;;5121160;27;330831;-81
2024/02/26 03:35:54;;;;;;;23.07;15.27;;;;;;;;;;5139922;27;319311;-80
2024/02/26 03:38:21;;;;;;;22.17;15.03;;;;;;;;;;5095900;27;418059;-79
2024/02/26 03:40:49;;;;;;;26.30;14.33;;;;;;;;;;5128375;27;317753;-81
2024/02/26 03:43:20;;;;;;;23.43;16.43;;;;;;;;;;5099400;27;318600;-81
2024/02/26 03:45:52;;;;;;;32.87;21.83;;;;;;;;;;5140279;27;318403;-81
2024/02/26 03:48:22;;;;;;;36.47;22.70;;;;;;;;;;5096003;27;418663;-80
2024/02/26 03:50:51;;;;;;;42.37;26.53;;;;;;;;;;5145690;27;319989;-79
2024/02/26 03:53:20;;;;;;;50.83;26.83;;;;;;;;;;5125395;27;419931;-80
2024/02/26 03:55:47;;;;;;;43.73;26.57;;;;;;;;;;5137032;27;317826;-79
2024/02/26 03:58:15;;;;;;;55.47;28.90;;;;;;;;;;5127456;27;317569;-79
2024/02/26 04:03:32;;;;;;;46.27;27.40;;;;;;;;;;5133370;27;391152;-79
2024/02/26 04:06:01;;;;;;;41.00;26.20;;;;;;;;;;5135809;27;318939;-80
2024/02/26 04:08:30;;;;;;;37.40;25.27;;;;;;;;;;5149855;27;319159;-79
2024/02/26 04:10:56;;;;;;;40.33;26.23;;;;;;;;;;5116665;27;319851;-81
2024/02/26 04:13:23;;;;;;;46.23;27.43;;;;;;;;;;5123140;27;318776;-79
2024/02/26 04:15:52;;;;;;;39.43;26.47;;;;;;;;;;5133436;27;318849;-80
2024/02/26 04:18:32;;;;;;;43.43;27.17;;;;;;;;;;5105674;27;420137;-79
2024/02/26 04:21:02;;;;;;;39.80;25.30;;;;;;;;;;5123190;27;319077;-82
2024/02/26 04:23:32;;;;;;;39.37;23.13;;;;;;;;;;5148181;27;343388;-79
2024/02/26 04:26:01;;;;;;;37.17;22.10;;;;;;;;;;5137019;27;318661;-79
2024/02/26 04:28:28;;;;;;;56.97;33.10;;;;;;;;;;5138638;27;318442;-80
2024/02/26 04:31:08;;;;;;;104.00;55.13;;;;;;;;;;5135947;27;319166;-80
2024/02/26 04:33:38;;;;;;;198.67;101.17;;;;;;;;;;5138461;27;318808;-79
2024/02/26 04:36:14;;;;;;;134.90;74.10;;;;;;;;;;5136598;27;320554;-81
2024/02/26 04:38:42;;;;;;;97.50;53.87;;;;;;;;;;5147964;27;320362;-80
2024/02/26 04:41:10;;;;;;;74.30;44.07;;;;;;;;;;5129657;27;318665;-82
2024/02/26 04:43:41;;;;;;;61.47;37.57;;;;;;;;;;5148699;27;319109;-81
2024/02/26 04:46:13;;;;;;;63.83;38.60;;;;;;;;;;5126774;27;319041;-81
2024/02/26 04:48:41;;;;;;;64.20;35.80;;;;;;;;;;5138146;27;318608;-80
2024/02/26 04:51:10;;;;;;;58.43;33.73;;;;;;;;;;5127118;27;344567;-80
2024/02/26 04:53:36;;;;;;;52.33;34.13;;;;;;;;;;5146954;27;318431;-80
2024/02/26 04:56:12;;;;;;;54.10;33.57;;;;;;;;;;5135711;27;319119;-80
2024/02/26 04:58:40;;;;;;;54.47;33.47;;;;;;;;;;5136170;27;317708;-80
2024/02/26 05:01:10;;;;;;;67.13;35.77;;;;;;;;;;5126688;27;318761;-81
2024/02/26 05:03:40;;;;;;;60.17;34.50;;;;;;;;;;5137083;27;319080;-82
2024/02/26 05:06:08;;;;;;;62.47;36.73;;;;;;;;;;5134639;27;317460;-81
2024/02/26 05:08:39;;;;;;;70.03;39.93;;;;;;;;;;5129147;27;319399;-80
2024/02/26 05:11:09;;;;;;;91.33;51.20;;;;;;;;;;5116317;27;325858;-80
2024/02/26 05:13:40;;;;;;;79.00;44.40;;;;;;;;;;5147542;27;317596;-80
2024/02/26 05:16:06;;;;;;;70.27;41.97;;;;;;;;;;5137162;27;318634;-80
2024/02/26 05:18:33;;;;;;;62.67;36.40;;;;;;;;;;5137258;27;318595;-80
2024/02/26 05:21:04;;;;;;;68.20;39.90;;;;;;;;;;5120431;27;347412;-80
2024/02/26 05:23:33;;;;;;;68.50;42.93;;;;;;;;;;5149123;27;317798;-81
2024/02/26 05:26:01;;;;;;;72.83;46.33;;;;;;;;;;5127199;27;321456;-81
2024/02/26 05:28:28;;;;;;;83.97;45.33;;;;;;;;;;5149291;27;317894;-81
2024/02/26 05:30:56;;;;;;;87.60;48.80;;;;;;;;;;5136949;27;318525;-81
2024/02/26 05:33:31;;;;;;;71.53;43.17;;;;;;;;;;5141551;27;318671;-80
2024/02/26 05:36:03;;;;;;;72.67;45.10;;;;;;;;;;5134110;27;319084;-81
2024/02/26 05:38:34;;;;;;;91.83;48.17;;;;;;;;;;5151048;27;317310;-80
2024/02/26 05:41:01;;;;;;;85.00;47.97;;;;;;;;;;5133489;27;318726;-81
2024/02/26 05:43:29;;;;;;;87.90;50.87;;;;;;;;;;5144194;27;318447;-80
2024/02/26 05:45:59;;;;;;;85.63;50.63;;;;;;;;;;5136434;27;319822;-80
2024/02/26 05:48:26;;;;;;;90.77;53.10;;;;;;;;;;5137267;27;317743;-80
2024/02/26 05:50:55;;;;;;;82.17;50.67;;;;;;;;;;5148166;27;319169;-81
2024/02/26 05:53:32;;;;;;;93.87;55.03;;;;;;;;;;5088779;27;418703;-80
2024/02/26 05:56:02;;;;;;;100.13;54.47;;;;;;;;;;5139595;27;318851;-81
2024/02/26 05:58:30;;;;;;;101.13;56.57;;;;;;;;;;5164839;27;320131;-80
2024/02/26 06:00:57;;;;;;;103.07;54.97;;;;;;;;;;5155201;27;318195;-80
2024/02/26 06:03:25;;;;;;;81.77;47.43;;;;;;;;;;5159295;27;318101;-80
2024/02/26 06:05:53;;;;;;;75.10;46.30;;;;;;;;;;5165314;27;316289;-80
2024/02/26 06:08:21;;;;;;;83.83;50.17;;;;;;;;;;5150339;27;418242;-80
2024/02/26 06:10:49;;;;;;;94.27;52.53;;;;;;;;;;5162493;27;317046;-80
2024/02/26 06:13:22;;;;;;;101.23;56.20;;;;;;;;;;5128532;27;319360;-81
2024/02/26 06:15:50;;;;;;;90.50;56.87;;;;;;;;;;5146051;27;320398;-82
2024/02/26 06:18:17;;;;;;;93.50;55.23;;;;;;;;;;5134194;27;318942;-82
2024/02/26 06:20:46;;;;;;;91.63;53.93;;;;;;;;;;5144102;27;318709;-81
2024/02/26 06:23:12;;;;;;;98.13;57.17;;;;;;;;;;5123343;27;318396;-80
2024/02/26 06:25:42;;;;;;;93.00;57.27;;;;;;;;;;5143779;27;318783;-81
2024/02/26 06:28:10;;;;;;;97.93;56.30;;;;;;;;;;5133743;27;318864;-82
2024/02/26 06:30:43;;;;;;;91.20;55.70;;;;;;;;;;5145173;27;318789;-81
2024/02/26 06:33:11;;;;;;;104.60;66.93;;;;;;;;;;5126033;27;319462;-80
2024/02/26 06:35:38;;;;;;;109.10;62.57;;;;;;;;;;5143797;27;320319;-82
2024/02/26 06:38:07;;;;;;;111.87;65.37;;;;;;;;;;5132281;27;319883;-82
2024/02/26 06:40:36;;;;;;;106.90;60.60;;;;;;;;;;5145753;27;320248;-82
2024/02/26 06:43:04;;;;;;;123.70;64.27;;;;;;;;;;5126529;27;320497;-80
2024/02/26 06:45:32;;;;;;;120.33;67.20;;;;;;;;;;5144900;27;319557;-81
2024/02/26 06:48:02;;;;;;;127.17;67.80;;;;;;;;;;5129759;27;341942;-81
2024/02/26 06:50:29;;;;;;;113.70;65.90;;;;;;;;;;5142901;27;318926;-81
2024/02/26 06:52:55;;;;;;;97.27;60.67;;;;;;;;;;5130876;27;320516;-81
2024/02/26 06:55:23;;;;;;;101.83;60.57;;;;;;;;;;5134111;27;321779;-80
2024/02/26 06:57:51;;;;;;;113.83;59.70;;;;;;;;;;5143323;27;320159;-81
2024/02/26 07:00:19;;;;;;;102.37;57.07;;;;;;;;;;5134046;27;320283;-80
2024/02/26 07:02:46;;;;;;;110.77;69.67;;;;;;;;;;5145635;27;320565;-80
2024/02/26 07:05:15;;;;;;;119.43;70.53;;;;;;;;;;5127578;27;320044;-81
2024/02/26 07:07:44;;;;;;;113.63;70.30;;;;;;;;;;5144562;27;318718;-80
2024/02/26 07:10:12;;;;;;;110.33;68.03;;;;;;;;;;5133035;27;320101;-79
2024/02/26 07:12:40;;;;;;;105.43;68.40;;;;;;;;;;5144830;27;320513;-80
2024/02/26 07:15:10;;;;;;;129.47;71.30;;;;;;;;;;5125936;27;320250;-80
2024/02/26 07:17:41;;;;;;;120.93;72.53;;;;;;;;;;5145815;27;319731;-80
2024/02/26 07:20:09;;;;;;;111.10;69.43;;;;;;;;;;5134674;27;319568;-80
2024/02/26 07:22:42;;;;;;;106.60;67.47;;;;;;;;;;5146899;27;320135;-80
2024/02/26 07:25:13;;;;;;;104.43;62.90;;;;;;;;;;5127016;27;320518;-78
2024/02/26 07:27:40;;;;;;;108.73;66.43;;;;;;;;;;5137454;27;320204;-80
2024/02/26 07:30:09;;;;;;;103.43;62.57;;;;;;;;;;5134283;27;319536;-80
2024/02/26 07:32:37;;;;;;;105.13;62.73;;;;;;;;;;5153070;27;318453;-80
2024/02/26 07:35:04;;;;;;;97.97;63.60;;;;;;;;;;5135471;27;319510;-80
2024/02/26 07:37:30;;;;;;;91.30;60.93;;;;;;;;;;5155277;27;317716;-80
2024/02/26 07:39:58;;;;;;;93.07;58.23;;;;;;;;;;5143379;27;318123;-81
2024/02/26 07:42:26;;;;;;;92.23;58.07;;;;;;;;;;5146207;27;317476;-81
2024/02/26 07:44:53;;;;;;;109.07;65.90;;;;;;;;;;5145996;27;319386;-81
2024/02/26 07:47:22;;;;;;;110.03;68.80;;;;;;;;;;5097519;27;419603;-80
2024/02/26 07:49:49;;;;;;;109.20;66.50;;;;;;;;;;5147019;27;318408;-82
2024/02/26 07:52:20;;;;;;;115.07;73.20;;;;;;;;;;5134041;27;319616;-79
2024/02/26 07:54:48;;;;;;;138.73;82.37;;;;;;;;;;5148216;27;319396;-80
2024/02/26 07:57:17;;;;;;;139.50;92.93;;;;;;;;;;5126996;27;320131;-80
2024/02/26 07:59:49;;;;;;;153.70;92.53;;;;;;;;;;5147511;27;320346;-81
2024/02/26 08:02:16;;;;;;;179.37;99.80;;;;;;;;;;5136719;27;320270;-83
2024/02/26 08:04:42;;;;;;;111.27;74.03;;;;;;;;;;5147384;27;318981;-79
2024/02/26 08:07:09;;;;;;;100.53;65.17;;;;;;;;;;5127598;27;320955;-79
2024/02/26 08:09:36;;;;;;;214.23;99.50;;;;;;;;;;5146853;27;360015;-80
2024/02/26 08:12:03;;;;;;;149.07;80.57;;;;;;;;;;5137211;27;320264;-80
2024/02/26 08:14:33;;;;;;;108.33;57.33;;;;;;;;;;5147991;27;319667;-80
2024/02/26 08:16:59;;;;;;;102.03;57.90;;;;;;;;;;5133098;27;319836;-80
2024/02/26 08:19:27;;;;;;;74.30;45.90;;;;;;;;;;5143211;27;319432;-79
2024/02/26 08:21:54;;;;;;;80.00;47.50;;;;;;;;;;5148235;27;318832;-80
2024/02/26 08:24:22;;;;;;;76.27;48.10;;;;;;;;;;5134077;27;420373;-82
2024/02/26 08:26:50;;;;;;;76.27;46.00;;;;;;;;;;5150773;27;318915;-81
2024/02/26 08:29:17;;;;;;;75.87;47.73;;;;;;;;;;5133381;27;319163;-80
2024/02/26 08:31:47;;;;;;;87.50;54.80;;;;;;;;;;5152842;27;318407;-80
2024/02/26 08:34:13;;;;;;;94.10;53.93;;;;;;;;;;5140441;27;318682;-81
2024/02/26 08:36:43;;;;;;;96.30;58.13;;;;;;;;;;5154040;27;317335;-82
2024/02/26 08:39:09;;;;;;;90.30;49.70;;;;;;;;;;5133012;27;319035;-80
2024/02/26 08:41:37;;;;;;;107.07;60.40;;;;;;;;;;5152122;27;347711;-80
2024/02/26 08:44:04;;;;;;;90.77;52.00;;;;;;;;;;5142007;27;320176;-79
2024/02/26 08:46:33;;;;;;;70.80;41.20;;;;;;;;;;5152617;27;318889;-80
2024/02/26 08:49:01;;;;;;;72.73;42.67;;;;;;;;;;5139538;27;318631;-82
2024/02/26 08:51:28;;;;;;;54.07;36.87;;;;;;;;;;5153134;27;317564;-80
2024/02/26 08:53:55;;;;;;;69.07;46.40;;;;;;;;;;5143957;27;318839;-80
2024/02/26 08:56:23;;;;;;;71.13;38.97;;;;;;;;;;5158981;27;318486;-80
2024/02/26 08:58:53;;;;;;;68.23;35.17;;;;;;;;;;5156074;27;319093;-81
2024/02/26 09:01:23;;;;;;;143.00;62.83;;;;;;;;;;5118815;27;419611;-80
2024/02/26 09:03:51;;;;;;;44.90;32.33;;;;;;;;;;5159677;27;319177;-82
2024/02/26 09:06:21;;;;;;;130.83;57.73;;;;;;;;;;5148023;27;317929;-80
2024/02/26 09:08:47;;;;;;;85.47;42.83;;;;;;;;;;5159550;27;319868;-79
2024/02/26 09:11:18;;;;;;;157.32;66.10;;;;;;;;;;5139034;27;320997;-80
2024/02/26 09:13:45;;;;;;;120.20;54.03;;;;;;;;;;5155349;27;320052;-81
2024/02/26 09:16:12;;;;;;;214.60;82.13;;;;;;;;;;5141741;27;336045;-82
2024/02/26 09:18:40;;;;;;;64.43;34.10;;;;;;;;;;5155533;27;319744;-80
2024/02/26 09:21:09;;;;;;;54.43;28.67;;;;;;;;;;5135350;27;319130;-81
2024/02/26 09:23:42;;;;;;;43.73;24.47;;;;;;;;;;5153173;27;317514;-80
2024/02/26 09:26:09;;;;;;;56.80;24.43;;;;;;;;;;5139679;27;319204;-82
2024/02/26 09:28:37;;;;;;;43.23;23.43;;;;;;;;;;5149583;27;318356;-82
2024/02/26 09:31:05;;;;;;;36.00;22.33;;;;;;;;;;5131485;27;318833;-80
2024/02/26 09:33:34;;;;;;;45.63;21.93;;;;;;;;;;5154759;27;317849;-79
2024/02/26 09:36:01;;;;;;;33.83;20.33;;;;;;;;;;5140227;27;319049;-79
2024/02/26 09:38:29;;;;;;;63.50;30.50;;;;;;;;;;5139404;27;318732;-81
2024/02/26 09:40:58;;;;;;;39.27;20.47;;;;;;;;;;5128344;27;319102;-82
2024/02/26 09:43:26;;;;;;;44.10;20.30;;;;;;;;;;5157485;27;318850;-82
2024/02/26 09:45:54;;;;;;;29.07;18.03;;;;;;;;;;5160675;27;319877;-80
2024/02/26 09:48:21;;;;;;;44.30;21.57;;;;;;;;;;5144637;27;417182;-83
2024/02/26 09:50:50;;;;;;;43.10;21.60;;;;;;;;;;5156754;27;319036;-82
2024/02/26 09:53:22;;;;;;;36.77;20.23;;;;;;;;;;5140933;27;319050;-80
2024/02/26 09:55:49;;;;;;;31.17;18.10;;;;;;;;;;5158696;27;319056;-82
2024/02/26 09:58:19;;;;;;;35.13;17.93;;;;;;;;;;5145616;27;318908;-81
2024/02/26 10:00:52;;;;;;;119.83;51.27;;;;;;;;;;5158337;27;319727;-81
2024/02/26 10:03:22;;;;;;;40.87;20.87;;;;;;;;;;5137566;27;420750;-80
2024/02/26 10:05:55;;;;;;;25.47;13.93;;;;;;;;;;5158945;27;318410;-82
2024/02/26 10:08:24;;;;;;;30.43;14.40;;;;;;;;;;5142084;27;419530;-82
2024/02/26 10:10:53;;;;;;;27.47;14.07;;;;;;;;;;5158463;27;317797;-81
2024/02/26 10:13:21;;;;;;;19.90;12.77;;;;;;;;;;5138680;27;417485;-82
2024/02/26 10:15:49;;;;;;;20.80;13.13;;;;;;;;;;5160982;27;318303;-83
2024/02/26 10:18:19;;;;;;;19.40;11.27;;;;;;;;;;5144552;27;319296;-80
2024/02/26 10:21:02;;;;;;;20.17;9.80;;;;;;;;;;5154745;27;319204;-81
2024/02/26 10:23:30;;;;;;;13.53;8.80;;;;;;;;;;5109315;27;417570;-82
2024/02/26 10:26:00;;;;;;;21.80;11.33;;;;;;;;;;5141710;27;318176;-82
2024/02/26 10:28:30;;;;;;;24.03;11.87;;;;;;;;;;5154068;27;319474;-80
2024/02/26 10:30:57;;;;;;;31.13;17.27;;;;;;;;;;5143563;27;319030;-80
2024/02/26 10:33:26;;;;;;;22.80;13.37;;;;;;;;;;5155937;27;317390;-81
2024/02/26 10:35:56;;;;;;;11.25;7.20;;;;;;;;;;5158569;27;319027;-80
2024/02/26 10:38:23;;;;;;;36.85;19.33;;;;;;;;;;5119343;27;417053;-82
2024/02/26 10:40:52;;;;;;;20.83;10.18;;;;;;;;;;5161071;27;319389;-81
2024/02/26 10:43:19;;;;;;;21.08;11.15;;;;;;;;;;5109354;27;342736;-81
2024/02/26 10:45:52;;;;;;;21.83;9.40;;;;;;;;;;5147142;27;319520;-81
2024/02/26 10:48:21;;;;;;;19.48;9.65;;;;;;;;;;5130963;27;417298;-80
2024/02/26 10:50:50;;;;;;;8.70;5.93;;;;;;;;;;5146477;27;318183;-80
2024/02/26 10:53:21;;;;;;;22.47;9.20;;;;;;;;;;5127360;27;317291;-80
2024/02/26 10:55:53;;;;;;;17.35;8.60;;;;;;;;;;5147267;27;318092;-82
2024/02/26 10:58:22;;;;;;;13.80;5.60;;;;;;;;;;5130557;27;417820;-82
2024/02/26 11:00:52;;;;;;;18.90;12.10;;;;;;;;;;5143553;27;318343;-80
2024/02/26 11:03:21;;;;;;;31.80;22.20;;;;;;;;;;5125721;27;319585;-81
2024/02/26 11:05:49;;;;;;;14.57;5.87;;;;;;;;;;5145767;27;319212;-81
2024/02/26 11:08:20;;;;;;;14.50;5.62;;;;;;;;;;5134736;27;318029;-80
2024/02/26 11:10:49;;;;;;;21.83;5.55;;;;;;;;;;5146166;27;318318;-81
2024/02/26 11:13:19;;;;;;;12.98;6.70;;;;;;;;;;5125799;27;318443;-80
2024/02/26 11:15:48;;;;;;;11.48;6.85;;;;;;;;;;5146726;27;318395;-81
2024/02/26 11:18:19;;;;;;;14.50;7.03;;;;;;;;;;5134068;27;318644;-80
2024/02/26 11:20:49;;;;;;;15.83;6.80;;;;;;;;;;5145201;27;318166;-80
2024/02/26 11:23:16;;;;;;;10.40;6.30;;;;;;;;;;5128343;27;318644;-80
2024/02/26 11:25:44;;;;;;;12.00;6.70;;;;;;;;;;5145627;27;317662;-82
2024/02/26 11:28:16;;;;;;;15.20;5.62;;;;;;;;;;5134258;27;318282;-81
2024/02/26 11:30:49;;;;;;;11.02;6.82;;;;;;;;;;5146931;27;318191;-81
2024/02/26 11:33:22;;;;;;;10.57;6.07;;;;;;;;;;5127740;27;318463;-81
2024/02/26 11:35:50;;;;;;;15.67;7.00;;;;;;;;;;5145414;27;317625;-82
2024/02/26 11:38:20;;;;;;;9.13;5.85;;;;;;;;;;5135624;27;318218;-82
2024/02/26 11:40:48;;;;;;;10.90;5.53;;;;;;;;;;5150860;27;316722;-81
2024/02/26 11:43:16;;;;;;;13.38;5.95;;;;;;;;;;5132955;27;317814;-81
2024/02/26 11:45:53;;;;;;;12.80;6.53;;;;;;;;;;5152891;27;317747;-81
2024/02/26 11:48:26;;;;;;;11.10;5.20;;;;;;;;;;5136215;27;417970;-82
2024/02/26 11:50:55;;;;;;;13.60;6.60;;;;;;;;;;5150748;27;318393;-81
2024/02/26 11:53:25;;;;;;;12.18;6.28;;;;;;;;;;5130160;27;417736;-81
2024/02/26 11:56:21;;;;;;;8.82;6.03;;;;;;;;;;5151643;27;317833;-82
2024/02/26 11:58:54;;;;;;;20.75;8.65;;;;;;;;;;5135898;27;419066;-81
2024/02/26 12:01:40;;;;;;;15.95;7.78;;;;;;;;;;5129338;27;418881;-81
2024/02/26 12:04:15;;;;;;;13.20;7.65;;;;;;;;;;5139962;27;317701;-81
2024/02/26 12:06:57;;;;;;;16.58;9.60;;;;;;;;;;5151100;27;316658;-81
2024/02/26 12:09:38;;;;;;;20.23;15.07;;;;;;;;;;5128216;27;418184;-82
2024/02/26 12:12:09;;;;;;;19.08;9.18;;;;;;;;;;5137426;27;319362;-81
2024/02/26 12:14:41;;;;;;;19.95;14.02;;;;;;;;;;5149676;27;318265;-81
2024/02/26 12:17:19;;;;;;;20.50;9.57;;;;;;;;;;5132204;27;318966;-83
2024/02/26 12:19:50;;;;;;;12.57;6.85;;;;;;;;;;5149019;27;318604;-82
2024/02/26 12:22:18;;;;;;;14.70;6.90;;;;;;;;;;5135709;27;318175;-83
2024/02/26 12:24:46;;;;;;;16.95;8.35;;;;;;;;;;5153415;27;316741;-80
2024/02/26 12:27:13;;;;;;;11.57;5.10;;;;;;;;;;5144415;27;317039;-82
2024/02/26 12:29:41;;;;;;;6.07;4.15;;;;;;;;;;5161201;27;316269;-81
2024/02/26 12:32:09;;;;;;;10.38;5.12;;;;;;;;;;5150113;27;329637;-81
2024/02/26 12:34:37;;;;;;;10.30;4.37;;;;;;;;;;5163992;27;316034;-78
2024/02/26 12:37:07;;;;;;;14.50;3.95;;;;;;;;;;5137728;27;316629;-79
2024/02/26 12:39:35;;;;;;;6.65;3.97;;;;;;;;;;5146950;27;316939;-79
2024/02/26 12:42:04;;;;;;;10.23;4.40;;;;;;;;;;5134142;27;317353;-80
2024/02/26 12:44:32;;;;;;;11.68;4.70;;;;;;;;;;5126190;27;318345;-81
2024/02/26 12:47:02;;;;;;;12.65;6.25;;;;;;;;;;5133874;27;318046;-81
2024/02/26 12:49:30;;;;;;;7.65;4.45;;;;;;;;;;5146782;27;316592;-81
2024/02/26 12:52:01;;;;;;;7.82;3.67;;;;;;;;;;5136569;27;317471;-78
2024/02/26 12:54:32;;;;;;;6.18;4.20;;;;;;;;;;5145929;27;316431;-79
2024/02/26 12:57:04;;;;;;;12.10;4.45;;;;;;;;;;5134778;27;317383;-79
2024/02/26 12:59:36;;;;;;;5.28;4.05;;;;;;;;;;5147057;27;318120;-83
2024/02/26 13:02:05;;;;;;;7.87;3.00;;;;;;;;;;5131206;27;351813;-80
2024/02/26 13:04:33;;;;;;;9.95;4.43;;;;;;;;;;5144960;27;341694;-80
2024/02/26 13:07:05;;;;;;;10.37;4.10;;;;;;;;;;5133650;27;317234;-81
2024/02/26 13:09:35;;;;;;;8.20;4.73;;;;;;;;;;5147516;27;317367;-80
2024/02/26 13:12:05;;;;;;;8.90;4.53;;;;;;;;;;5135639;27;316362;-80
2024/02/26 13:14:33;;;;;;;13.13;4.10;;;;;;;;;;5146117;27;315286;-80
2024/02/26 13:17:04;;;;;;;9.60;4.77;;;;;;;;;;5133571;27;317744;-80
2024/02/26 13:19:33;;;;;;;5.72;3.33;;;;;;;;;;5146062;27;317187;-80
2024/02/26 13:22:06;;;;;;;6.50;4.23;;;;;;;;;;5135940;27;317306;-80
2024/02/26 13:24:36;;;;;;;10.97;4.70;;;;;;;;;;5147840;27;321582;-81
2024/02/26 13:27:05;;;;;;;9.20;6.35;;;;;;;;;;5126301;27;317616;-80
2024/02/26 13:29:33;;;;;;;13.73;5.33;;;;;;;;;;5147284;27;317062;-83
2024/02/26 13:32:03;;;;;;;8.43;5.62;;;;;;;;;;5135244;27;317504;-80
2024/02/26 13:34:33;;;;;;;13.48;5.57;;;;;;;;;;5146650;27;316133;-81
2024/02/26 13:36:59;;;;;;;10.73;5.47;;;;;;;;;;5133163;27;338174;-81
2024/02/26 13:39:27;;;;;;;10.50;5.17;;;;;;;;;;5144202;27;317797;-81
2024/02/26 13:41:56;;;;;;;8.98;5.10;;;;;;;;;;5144933;27;317747;-81
2024/02/26 13:44:25;;;;;;;12.73;5.28;;;;;;;;;;5132610;27;418052;-82
2024/02/26 13:46:52;;;;;;;14.07;6.15;;;;;;;;;;5144761;27;349255;-81
2024/02/26 13:49:18;;;;;;;13.27;6.75;;;;;;;;;;5128286;27;318176;-82
2024/02/26 13:51:46;;;;;;;17.58;8.15;;;;;;;;;;5148024;27;317697;-82
2024/02/26 13:54:14;;;;;;;10.13;7.32;;;;;;;;;;5136619;27;318647;-80
2024/02/26 13:56:43;;;;;;;10.93;7.05;;;;;;;;;;5146991;27;316820;-79
2024/02/26 13:59:13;;;;;;;16.08;6.78;;;;;;;;;;5125940;27;317886;-78
2024/02/26 14:01:41;;;;;;;10.93;5.80;;;;;;;;;;5144759;27;318001;-78
2024/02/26 14:04:10;;;;;;;9.93;5.15;;;;;;;;;;5133379;27;317524;-78
2024/02/26 14:06:37;;;;;;;11.38;5.53;;;;;;;;;;5145079;27;317341;-78
2024/02/26 14:09:07;;;;;;;13.93;5.57;;;;;;;;;;5125481;27;316567;-78
2024/02/26 14:11:36;;;;;;;18.97;5.73;;;;;;;;;;5144414;27;317420;-78
2024/02/26 14:14:06;;;;;;;13.02;5.75;;;;;;;;;;5127183;27;318026;-79
2024/02/26 14:16:37;;;;;;;13.15;7.25;;;;;;;;;;5134197;27;318156;-79
2024/02/26 14:19:07;;;;;;;39.72;8.23;;;;;;;;;;5114049;27;317328;-78
2024/02/26 14:21:38;;;;;;;36.67;7.40;;;;;;;;;;5142400;27;318288;-78
2024/02/26 14:24:06;;;;;;;19.92;8.05;;;;;;;;;;5131619;27;318256;-79